Main page
Satellite images Climate Cyclones Lightning AirportsFAQ Languages Contact Newsletter About
Weather : Europe Africa North America South America Asia Australia-Oceania Others

ho-chi-minh-vn, Ho Chi Minh City, Tan Son Nhat International Airport

latitude: , longitude: Vietnam, elevation: 10-49N m


METAR: VVTS 261600Z 25002KT 9999 FEW015 SCT040 28/26 Q1009 NOSIG